This is the latest recevied weather packets stored in our database for station/object OK1KKY-18. If no packets are shown the sender has not sent any weather packets the latest 10 day(s).
| Time | Temp. | Humidity | Pressure | Rain* | Wind** | Luminosity | Snow |
|---|---|---|---|---|---|---|---|
| 1778067362 | 16.67° C | 60% | 1007.9 hPa | - | - | - | - |
| 1778066762 | 16.11° C | 61% | 1007.9 hPa | - | - | - | - |
| 1778066162 | 16.11° C | 64% | 1007.9 hPa | - | - | - | - |
| 1778065562 | 16.11° C | 62% | 1008 hPa | - | - | - | - |
| 1778064962 | 16.11° C | 63% | 1008 hPa | - | - | - | - |
| 1778064362 | 16.11° C | 62% | 1007.9 hPa | - | - | - | - |
| 1778063762 | 16.11° C | 64% | 1007.9 hPa | - | - | - | - |
| 1778063162 | 15.56° C | 65% | 1007.8 hPa | - | - | - | - |
| 1778062562 | 16.11° C | 63% | 1008 hPa | - | - | - | - |
| 1778061962 | 15° C | 67% | 1007.9 hPa | - | - | - | - |
| 1778061362 | 14.44° C | 70% | 1007.9 hPa | - | - | - | - |
| 1778060762 | 14.44° C | 70% | 1007.8 hPa | - | - | - | - |
| 1778060162 | 13.89° C | 69% | 1007.6 hPa | - | - | - | - |
| 1778059562 | 13.89° C | 72% | 1007.6 hPa | - | - | - | - |
| 1778058962 | 13.89° C | 73% | 1007.7 hPa | - | - | - | - |
| 1778058362 | 13.89° C | 71% | 1007.8 hPa | - | - | - | - |
| 1778057762 | 13.89° C | 72% | 1007.8 hPa | - | - | - | - |
| 1778057162 | 13.89° C | 71% | 1007.6 hPa | - | - | - | - |
| 1778056562 | 13.33° C | 71% | 1007.6 hPa | - | - | - | - |
| 1778055962 | 13.33° C | 72% | 1007.5 hPa | - | - | - | - |
| 1778055363 | 12.78° C | 75% | 1007.6 hPa | - | - | - | - |
| 1778054763 | 12.78° C | 76% | 1007.4 hPa | - | - | - | - |
| 1778054163 | 12.78° C | 76% | 1007.2 hPa | - | - | - | - |
| 1778053563 | 12.78° C | 75% | 1007.2 hPa | - | - | - | - |
| 1778052963 | 12.78° C | 73% | 1007.1 hPa | - | - | - | - |
* Rain since midnight (hover to see other rain measurements)
** Current wind speed in m/s (hover to see current wind gust speed)